createdAt,value
2022-11-27T00:01:33.887Z,100356.96
2022-11-27T00:04:29.107Z,100361.85
2022-11-27T00:07:23.744Z,100362.02
2022-11-27T00:10:16.504Z,100362.66
2022-11-27T00:13:08.919Z,100369.19
2022-11-27T00:16:01.761Z,100377.48
2022-11-27T00:18:54.870Z,100368.95
2022-11-27T00:21:47.721Z,100369.62
2022-11-27T00:24:41.100Z,100377.58
2022-11-27T00:27:34.243Z,100377.27
2022-11-27T00:30:26.809Z,100376.40
2022-11-27T00:33:19.294Z,100392.02
2022-11-27T00:36:13.852Z,100386.00
2022-11-27T00:39:06.071Z,100393.53
2022-11-27T00:41:58.718Z,100405.04
2022-11-27T00:44:51.285Z,100408.55
2022-11-27T00:47:43.928Z,100404.94
2022-11-27T00:50:36.510Z,100417.94
2022-11-27T00:53:29.423Z,100419.88
2022-11-27T00:56:24.009Z,100412.74
2022-11-27T00:59:16.189Z,100426.31
2022-11-27T01:02:10.405Z,100429.63
2022-11-27T01:05:02.863Z,100445.39
2022-11-27T01:07:55.153Z,100443.38
2022-11-27T01:10:54.904Z,100447.88
2022-11-27T01:13:48.487Z,100452.06
2022-11-27T01:16:43.136Z,100460.30
2022-11-27T01:19:35.822Z,100463.88
2022-11-27T01:22:28.118Z,100456.02
2022-11-27T01:25:25.529Z,100459.09
2022-11-27T01:28:19.501Z,100462.00
2022-11-27T01:31:14.996Z,100461.92
2022-11-27T01:34:09.928Z,100463.98
2022-11-27T01:37:02.092Z,100466.74
2022-11-27T01:39:54.738Z,100472.02
2022-11-27T01:42:49.698Z,100472.10
2022-11-27T01:45:42.477Z,100487.36
2022-11-27T01:48:35.165Z,100489.56
2022-11-27T01:51:27.913Z,100495.50
2022-11-27T01:54:23.380Z,100497.77
2022-11-27T01:57:19.658Z,100499.92
2022-11-27T02:00:15.924Z,100508.17
2022-11-27T02:03:08.302Z,100508.92
2022-11-27T02:06:00.478Z,100509.83
2022-11-27T02:08:53.196Z,100513.29
2022-11-27T02:11:59.723Z,100519.50
2022-11-27T02:15:05.275Z,100517.74
2022-11-27T02:18:04.723Z,100527.05
2022-11-27T02:21:02.331Z,100532.77
2022-11-27T02:24:10.450Z,100529.08
2022-11-27T02:27:24.450Z,100518.41
2022-11-27T02:30:17.241Z,100516.36
2022-11-27T02:33:13.537Z,100515.48
2022-11-27T02:36:11.546Z,100515.70
2022-11-27T02:39:09.204Z,100510.67
2022-11-27T02:42:08.107Z,100515.40
2022-11-27T02:45:04.554Z,100506.48
2022-11-27T02:47:59.159Z,100506.29
2022-11-27T02:50:53.564Z,100506.62
2022-11-27T02:53:52.083Z,100500.38
2022-11-27T02:56:48.423Z,100501.03
2022-11-27T02:59:43.320Z,100505.17
2022-11-27T03:02:38.219Z,100504.77
2022-11-27T03:05:34.347Z,100509.56
2022-11-27T03:08:32.443Z,100506.64
2022-11-27T03:11:30.958Z,100504.16
2022-11-27T03:14:24.992Z,100503.70
2022-11-27T03:17:30.645Z,100500.52
2022-11-27T03:20:27.274Z,100498.59
2022-11-27T03:23:19.653Z,100493.14
2022-11-27T03:26:12.075Z,100501.70
2022-11-27T03:29:07.902Z,100499.86
2022-11-27T03:32:01.994Z,100494.89
2022-11-27T03:34:55.216Z,100494.98
2022-11-27T03:37:47.807Z,100496.13
2022-11-27T03:40:47.864Z,100499.24
2022-11-27T03:43:48.928Z,100500.75
2022-11-27T03:46:55.121Z,100502.92
2022-11-27T03:49:59.302Z,100503.30
2022-11-27T03:53:01.459Z,100496.76
2022-11-27T03:56:06.836Z,100503.94
2022-11-27T03:59:09.446Z,100507.16
2022-11-27T04:02:01.752Z,100508.48
2022-11-27T04:04:54.023Z,100516.80
2022-11-27T04:07:46.294Z,100524.48
2022-11-27T04:10:38.668Z,100530.42
2022-11-27T04:13:30.887Z,100534.55
2022-11-27T04:16:23.255Z,100533.91
2022-11-27T04:19:15.509Z,100534.05
2022-11-27T04:22:07.700Z,100537.16
2022-11-27T04:24:59.951Z,100537.98
2022-11-27T04:27:52.915Z,100533.81
2022-11-27T04:30:45.621Z,100531.18
2022-11-27T04:33:37.857Z,100531.83
2022-11-27T04:36:33.523Z,100531.45
2022-11-27T04:39:28.381Z,100531.17
2022-11-27T04:42:20.937Z,100531.48
2022-11-27T04:45:14.616Z,100536.98
2022-11-27T04:48:07.627Z,100539.91
2022-11-27T04:50:59.921Z,100539.16
2022-11-27T04:53:52.139Z,100544.12
2022-11-27T04:56:44.448Z,100540.42
2022-11-27T04:59:36.827Z,100543.81
2022-11-27T05:02:29.092Z,100550.79
2022-11-27T05:05:21.584Z,100547.83
2022-11-27T05:08:13.836Z,100545.85
2022-11-27T05:11:08.609Z,100538.02
2022-11-27T05:14:17.152Z,100530.79
2022-11-27T05:17:10.591Z,100526.41
2022-11-27T05:20:02.994Z,100527.86
2022-11-27T05:22:55.317Z,100532.35
2022-11-27T05:25:47.595Z,100530.86
2022-11-27T05:28:39.897Z,100529.43
2022-11-27T05:31:32.497Z,100524.45
2022-11-27T05:34:25.162Z,100526.92
2022-11-27T05:37:19.709Z,100525.86
2022-11-27T05:40:14.198Z,100531.85
2022-11-27T05:43:06.606Z,100536.67
2022-11-27T05:45:58.954Z,100528.48
2022-11-27T05:48:51.774Z,100534.61
2022-11-27T05:51:50.769Z,100528.30
2022-11-27T05:54:43.886Z,100529.11
2022-11-27T05:57:36.245Z,100523.11
2022-11-27T06:00:28.720Z,100516.63
2022-11-27T06:03:21.132Z,100518.45
2022-11-27T06:06:16.448Z,100518.10
2022-11-27T06:09:12.754Z,100515.81
2022-11-27T06:12:06.344Z,100516.33
2022-11-27T06:14:58.628Z,100512.31
2022-11-27T06:17:51.758Z,100500.55
2022-11-27T06:20:46.784Z,100507.38
2022-11-27T06:23:42.024Z,100501.59
2022-11-27T06:26:35.974Z,100504.41
2022-11-27T06:29:28.209Z,100508.63
2022-11-27T06:32:20.633Z,100505.22
2022-11-27T06:35:13.486Z,100509.02
2022-11-27T06:38:05.737Z,100512.86
2022-11-27T06:41:02.901Z,100518.90
2022-11-27T06:43:55.466Z,100517.58
2022-11-27T06:46:47.753Z,100521.65
2022-11-27T06:49:40.188Z,100516.52
2022-11-27T06:52:37.183Z,100516.46
2022-11-27T06:55:32.408Z,100516.60
2022-11-27T06:58:30.673Z,100508.89
2022-11-27T07:01:27.103Z,100510.66
2022-11-27T07:04:22.748Z,100513.20
2022-11-27T07:07:16.039Z,100513.66
2022-11-27T07:10:10.326Z,100511.83
2022-11-27T07:13:02.316Z,100508.86
2022-11-27T07:15:54.890Z,100508.34
2022-11-27T07:18:49.137Z,100509.29
2022-11-27T07:21:42.025Z,100508.55
2022-11-27T07:24:35.739Z,100505.42
2022-11-27T07:27:27.969Z,100504.03
2022-11-27T07:30:20.603Z,100505.29
2022-11-27T07:33:15.209Z,100502.02
2022-11-27T07:36:10.089Z,100500.88
2022-11-27T07:39:02.177Z,100501.09
2022-11-27T07:41:57.230Z,100505.26
2022-11-27T07:44:52.511Z,100504.66
2022-11-27T07:47:44.976Z,100503.11
2022-11-27T07:50:37.458Z,100505.71
2022-11-27T07:53:29.708Z,100509.08
2022-11-27T07:56:22.439Z,100503.84
2022-11-27T07:59:14.347Z,100504.13
2022-11-27T08:02:10.635Z,100506.45
2022-11-27T08:05:10.948Z,100508.38
2022-11-27T08:08:05.900Z,100513.17
2022-11-27T08:10:58.267Z,100515.21
2022-11-27T08:13:51.810Z,100507.73
2022-11-27T08:16:47.440Z,100502.87
2022-11-27T08:19:39.783Z,100502.48
2022-11-27T08:22:38.057Z,100500.02
2022-11-27T08:25:30.685Z,100489.23
2022-11-27T08:28:22.935Z,100486.85
2022-11-27T08:31:22.602Z,100476.70
2022-11-27T08:34:14.528Z,100472.33
2022-11-27T08:37:08.560Z,100477.04
2022-11-27T08:40:01.064Z,100472.21
2022-11-27T08:42:58.091Z,100477.63
2022-11-27T08:45:50.617Z,100485.31
2022-11-27T08:48:45.711Z,100489.35
2022-11-27T08:51:38.241Z,100487.99
2022-11-27T08:54:30.815Z,100484.83
2022-11-27T08:57:23.157Z,100489.30
2022-11-27T09:00:16.871Z,100481.92
2022-11-27T09:03:13.778Z,100474.35
2022-11-27T09:06:43.509Z,100474.05
2022-11-27T09:09:57.750Z,100470.80
2022-11-27T09:12:52.815Z,100473.94
2022-11-27T09:15:45.144Z,100471.49
2022-11-27T09:18:37.838Z,100472.34
2022-11-27T09:21:31.995Z,100469.60
2022-11-27T09:24:25.109Z,100474.56
2022-11-27T09:27:17.808Z,100476.98
2022-11-27T09:30:15.800Z,100481.10
2022-11-27T09:33:13.445Z,100482.02
2022-11-27T09:36:16.757Z,100475.75
2022-11-27T09:39:09.924Z,100472.50
2022-11-27T09:42:04.506Z,100473.66
2022-11-27T09:45:00.682Z,100469.14
2022-11-27T09:47:56.738Z,100470.49
2022-11-27T09:50:53.359Z,100472.87
2022-11-27T09:53:51.394Z,100478.41
2022-11-27T09:56:48.153Z,100474.20
2022-11-27T09:59:46.847Z,100470.70
2022-11-27T10:02:39.422Z,100470.06
2022-11-27T10:05:40.004Z,100459.04
2022-11-27T10:08:44.956Z,100454.98
2022-11-27T10:11:43.527Z,100460.90
2022-11-27T10:14:46.456Z,100472.91
2022-11-27T10:17:44.585Z,100467.91
2022-11-27T10:20:45.128Z,100465.28
2022-11-27T10:23:44.451Z,100463.77
2022-11-27T10:26:42.294Z,100465.11
2022-11-27T10:29:45.708Z,100472.21
2022-11-27T10:32:57.347Z,100469.60
2022-11-27T10:35:50.667Z,100460.55
2022-11-27T10:38:45.440Z,100451.31
2022-11-27T10:41:49.663Z,100443.48
2022-11-27T10:44:47.554Z,100444.14
2022-11-27T10:47:42.148Z,100442.40
2022-11-27T10:50:35.093Z,100439.98
2022-11-27T10:53:32.071Z,100438.86
2022-11-27T10:56:48.994Z,100439.59
2022-11-27T10:59:46.532Z,100437.23
2022-11-27T11:02:41.143Z,100438.67
2022-11-27T11:05:50.980Z,100432.41
2022-11-27T11:08:47.008Z,100427.66
2022-11-27T11:11:39.165Z,100428.16
2022-11-27T11:14:31.374Z,100426.18
2022-11-27T11:17:28.423Z,100421.47
2022-11-27T11:20:24.878Z,100417.16
2022-11-27T11:23:25.035Z,100420.88
2022-11-27T11:26:29.243Z,100415.33
2022-11-27T11:29:32.480Z,100406.61
2022-11-27T11:32:29.685Z,100403.74
2022-11-27T11:35:32.353Z,100399.49
2022-11-27T11:38:33.860Z,100388.84
2022-11-27T11:41:26.160Z,100383.66
2022-11-27T11:44:30.577Z,100378.71
2022-11-27T11:47:25.206Z,100377.82
2022-11-27T11:50:24.389Z,100377.36
2022-11-27T11:53:27.606Z,100368.89
2022-11-27T11:56:29.683Z,100358.64
2022-11-27T11:59:28.990Z,100360.31
2022-11-27T12:02:43.326Z,100352.77
2022-11-27T12:05:42.737Z,100349.92
2022-11-27T12:08:48.150Z,100341.52
2022-11-27T12:11:50.567Z,100337.86
2022-11-27T12:14:50.300Z,100333.64
2022-11-27T12:17:56.459Z,100336.50
2022-11-27T12:21:06.072Z,100339.83
2022-11-27T12:24:05.410Z,100336.98
2022-11-27T12:27:09.376Z,100327.58
2022-11-27T12:30:17.025Z,100316.48
2022-11-27T12:33:27.144Z,100301.71
2022-11-27T12:36:29.401Z,100284.05
2022-11-27T12:39:32.619Z,100263.59
2022-11-27T12:42:30.587Z,100251.33
2022-11-27T12:45:26.405Z,100248.23
2022-11-27T12:48:24.584Z,100239.75
2022-11-27T12:51:22.613Z,100236.48
2022-11-27T12:54:20.332Z,100239.04
2022-11-27T12:57:19.021Z,100230.02
2022-11-27T13:00:23.258Z,100225.77
2022-11-27T13:03:23.986Z,100224.53
2022-11-27T13:06:20.059Z,100208.08
2022-11-27T13:09:20.364Z,100208.45
2022-11-27T13:12:19.065Z,100203.77
2022-11-27T13:15:32.681Z,100192.21
2022-11-27T13:18:32.536Z,100185.16
2022-11-27T13:21:28.675Z,100183.06
2022-11-27T13:24:22.391Z,100179.27
2022-11-27T13:27:18.570Z,100179.48
2022-11-27T13:30:19.984Z,100177.52
2022-11-27T13:33:27.363Z,100179.73
2022-11-27T13:36:25.497Z,100175.73
2022-11-27T13:39:29.580Z,100180.08
2022-11-27T13:42:23.536Z,100179.66
2022-11-27T13:45:24.691Z,100178.81
2022-11-27T13:48:32.167Z,100174.73
2022-11-27T13:51:30.103Z,100166.94
2022-11-27T13:54:27.621Z,100163.09
2022-11-27T13:57:22.223Z,100156.64
2022-11-27T14:00:16.707Z,100150.54
2022-11-27T14:03:22.189Z,100146.56
2022-11-27T14:06:27.839Z,100145.25
2022-11-27T14:09:20.156Z,100153.58
2022-11-27T14:12:26.349Z,100156.24
2022-11-27T14:15:26.778Z,100155.36
2022-11-27T14:18:22.108Z,100155.29
2022-11-27T14:21:28.335Z,100153.20
2022-11-27T14:24:41.583Z,100153.08
2022-11-27T14:27:38.487Z,100146.84
2022-11-27T14:30:36.459Z,100138.33
2022-11-27T14:33:31.181Z,100135.41
2022-11-27T14:36:26.626Z,100134.73
2022-11-27T14:39:26.854Z,100133.34
2022-11-27T14:42:28.463Z,100129.19
2022-11-27T14:45:24.123Z,100125.09
2022-11-27T14:48:30.924Z,100122.88
2022-11-27T14:51:25.398Z,100117.58
2022-11-27T14:54:23.697Z,100112.36
2022-11-27T14:57:19.660Z,100110.80
2022-11-27T15:00:21.519Z,100106.62
2022-11-27T15:03:19.084Z,100100.42
2022-11-27T15:06:19.059Z,100097.89
2022-11-27T15:09:36.123Z,100092.39
2022-11-27T15:12:31.776Z,100092.64
2022-11-27T15:15:26.654Z,100088.05
2022-11-27T15:18:24.328Z,100087.77
2022-11-27T15:21:22.651Z,100077.61
2022-11-27T15:24:32.490Z,100067.68
2022-11-27T15:27:24.750Z,100070.27
2022-11-27T15:30:21.191Z,100069.36
2022-11-27T15:33:28.523Z,100069.27
2022-11-27T15:36:22.812Z,100060.87
2022-11-27T15:39:25.825Z,100053.80
2022-11-27T15:42:19.053Z,100063.88
2022-11-27T15:45:13.936Z,100061.61
2022-11-27T15:48:06.603Z,100055.80
2022-11-27T15:50:58.882Z,100054.43
2022-11-27T15:53:51.181Z,100052.17
2022-11-27T15:56:43.942Z,100055.14
2022-11-27T15:59:36.049Z,100056.55
2022-11-27T16:02:30.548Z,100055.61
2022-11-27T16:05:23.249Z,100060.52
2022-11-27T16:08:15.334Z,100064.56
2022-11-27T16:11:11.650Z,100065.70
2022-11-27T16:14:03.585Z,100066.10
2022-11-27T16:16:56.305Z,100051.84
2022-11-27T16:19:48.565Z,100043.25
2022-11-27T16:22:40.789Z,100043.05
2022-11-27T16:25:33.105Z,100037.55
2022-11-27T16:28:26.366Z,100036.98
2022-11-27T16:31:18.710Z,100035.33
2022-11-27T16:34:11.456Z,100028.74
2022-11-27T16:37:05.119Z,100032.41
2022-11-27T16:39:57.639Z,100036.61
2022-11-27T16:42:49.846Z,100046.63
2022-11-27T16:45:43.260Z,100049.86
2022-11-27T16:48:37.190Z,100044.98
2022-11-27T16:51:32.154Z,100030.36
2022-11-27T16:54:24.291Z,100026.86
2022-11-27T16:57:17.678Z,100031.06
2022-11-27T17:00:11.680Z,100027.92
2022-11-27T17:03:03.616Z,100031.25
2022-11-27T17:05:56.131Z,100035.19
2022-11-27T17:08:48.380Z,100028.30
2022-11-27T17:11:45.191Z,100025.05
2022-11-27T17:14:38.924Z,100022.64
2022-11-27T17:17:35.456Z,100018.58
2022-11-27T17:20:31.533Z,100012.06
2022-11-27T17:23:23.802Z,99999.32
2022-11-27T17:26:19.181Z,99997.98
2022-11-27T17:29:13.063Z,99994.14
2022-11-27T17:32:04.932Z,99989.70
2022-11-27T17:34:57.985Z,99988.96
2022-11-27T17:37:50.158Z,99992.39
2022-11-27T17:40:42.432Z,99992.31
2022-11-27T17:43:35.031Z,99988.38
2022-11-27T17:46:28.940Z,99989.26
2022-11-27T17:49:22.197Z,99992.60
2022-11-27T17:52:14.975Z,99987.45
2022-11-27T17:55:09.483Z,99980.04
2022-11-27T17:58:02.438Z,99972.59
2022-11-27T18:00:54.577Z,99964.55
2022-11-27T18:03:47.405Z,99960.02
2022-11-27T18:06:40.423Z,99963.05
2022-11-27T18:09:34.101Z,99962.35
2022-11-27T18:12:26.309Z,99958.17
2022-11-27T18:15:21.040Z,99960.75
2022-11-27T18:18:13.181Z,99956.77
2022-11-27T18:21:15.310Z,99952.38
2022-11-27T18:24:25.901Z,99947.14
2022-11-27T18:27:18.250Z,99939.71
2022-11-27T18:30:12.330Z,99939.67
2022-11-27T18:33:04.724Z,99938.19
2022-11-27T18:35:57.002Z,99930.08
2022-11-27T18:38:51.869Z,99918.98
2022-11-27T18:41:44.201Z,99923.28
2022-11-27T18:44:44.458Z,99921.69
2022-11-27T18:47:37.867Z,99922.69
2022-11-27T18:50:30.334Z,99934.80
2022-11-27T18:53:22.478Z,99943.73
2022-11-27T18:56:17.176Z,99968.56
2022-11-27T18:59:10.057Z,99994.80
2022-11-27T19:02:05.360Z,99998.17
2022-11-27T19:04:57.803Z,99993.92
2022-11-27T19:07:49.969Z,99977.79
2022-11-27T19:10:43.582Z,99956.08
2022-11-27T19:13:36.467Z,99936.52
2022-11-27T19:16:31.630Z,99913.34
2022-11-27T19:19:53.464Z,99906.80
2022-11-27T19:22:40.506Z,99893.98
2022-11-27T19:25:37.371Z,99892.95
2022-11-27T19:28:29.713Z,99892.34
2022-11-27T19:31:23.861Z,99893.91
2022-11-27T19:34:15.974Z,99893.33
2022-11-27T19:37:09.345Z,99887.90
2022-11-27T19:40:01.845Z,99888.94
2022-11-27T19:43:00.688Z,99893.67
2022-11-27T19:45:53.575Z,99890.52
2022-11-27T19:48:46.189Z,99900.27
2022-11-27T19:51:40.370Z,99901.36
2022-11-27T19:54:33.562Z,99906.17
2022-11-27T19:57:26.552Z,99911.36
2022-11-27T20:00:22.277Z,99911.06
2022-11-27T20:03:14.753Z,99909.31
2022-11-27T20:06:11.258Z,99916.60
2022-11-27T20:09:06.386Z,99914.19
2022-11-27T20:11:59.533Z,99914.83
2022-11-27T20:14:51.680Z,99906.50
2022-11-27T20:17:44.018Z,99896.92
2022-11-27T20:20:36.842Z,99893.61
2022-11-27T20:23:30.056Z,99888.73
2022-11-27T20:26:25.325Z,99879.56
2022-11-27T20:29:19.738Z,99867.52
2022-11-27T20:32:12.792Z,99872.30
2022-11-27T20:35:05.164Z,99870.34
2022-11-27T20:37:57.512Z,99870.89
2022-11-27T20:40:50.109Z,99875.73
2022-11-27T20:43:44.456Z,99875.95
2022-11-27T20:46:37.906Z,99873.59
2022-11-27T20:49:30.783Z,99871.42
2022-11-27T20:52:23.181Z,99870.54
2022-11-27T20:55:15.628Z,99868.16
2022-11-27T20:58:08.117Z,99862.77
2022-11-27T21:01:01.068Z,99859.52
2022-11-27T21:03:55.713Z,99855.31
2022-11-27T21:06:48.558Z,99847.96
2022-11-27T21:09:40.962Z,99846.53
2022-11-27T21:12:34.364Z,99842.63
2022-11-27T21:15:26.684Z,99845.84
2022-11-27T21:18:19.007Z,99853.27
2022-11-27T21:21:13.758Z,99856.97
2022-11-27T21:24:07.272Z,99861.13
2022-11-27T21:26:59.845Z,99858.30
2022-11-27T21:29:55.183Z,99853.02
2022-11-27T21:32:48.393Z,99850.01
2022-11-27T21:35:40.841Z,99843.23
2022-11-27T21:38:33.537Z,99838.91
2022-11-27T21:41:26.800Z,99835.66
2022-11-27T21:44:20.174Z,99834.94
2022-11-27T21:47:12.868Z,99835.61
2022-11-27T21:50:05.826Z,99832.36
2022-11-27T21:52:58.623Z,99828.73
2022-11-27T21:55:52.585Z,99830.80
2022-11-27T21:58:47.043Z,99828.41
2022-11-27T22:01:39.865Z,99824.13
2022-11-27T22:04:32.833Z,99814.67
2022-11-27T22:07:25.191Z,99812.73
2022-11-27T22:10:17.619Z,99808.38
2022-11-27T22:13:12.736Z,99804.26
2022-11-27T22:16:09.387Z,99801.48
2022-11-27T22:19:03.364Z,99801.08
2022-11-27T22:21:55.909Z,99796.47
2022-11-27T22:24:49.688Z,99794.55
2022-11-27T22:27:43.625Z,99794.98
2022-11-27T22:30:36.141Z,99800.11
2022-11-27T22:33:28.497Z,99805.10
2022-11-27T22:36:22.900Z,99811.38
2022-11-27T22:39:16.922Z,99813.54
2022-11-27T22:42:10.404Z,99814.11
2022-11-27T22:45:02.731Z,99815.56
2022-11-27T22:47:55.101Z,99814.83
2022-11-27T22:50:47.800Z,99819.73
2022-11-27T22:53:41.076Z,99818.91
2022-11-27T22:56:34.808Z,99822.21
2022-11-27T22:59:34.803Z,99823.70
2022-11-27T23:02:31.565Z,99822.51
2022-11-27T23:05:23.895Z,99823.73
2022-11-27T23:08:16.283Z,99824.71
2022-11-27T23:11:11.248Z,99822.38
2022-11-27T23:14:03.579Z,99824.48
2022-11-27T23:16:56.195Z,99823.42
2022-11-27T23:19:48.967Z,99823.85
2022-11-27T23:22:42.465Z,99823.98
2022-11-27T23:25:34.945Z,99823.30
2022-11-27T23:28:27.421Z,99819.01
2022-11-27T23:31:29.868Z,99819.86
2022-11-27T23:34:22.883Z,99813.75
2022-11-27T23:37:15.354Z,99813.83
2022-11-27T23:40:09.650Z,99808.91
2022-11-27T23:43:02.093Z,99804.09
2022-11-27T23:45:54.901Z,99801.96
2022-11-27T23:48:47.886Z,99798.26
2022-11-27T23:51:40.384Z,99802.63
2022-11-27T23:54:32.984Z,99800.73
2022-11-27T23:57:25.484Z,99798.40
